createdAt,value
2023-05-04T00:01:43.538Z,101341.78
2023-05-04T00:06:46.243Z,101346.19
2023-05-04T00:11:50.261Z,101336.44
2023-05-04T00:16:53.209Z,101334.22
2023-05-04T00:21:55.899Z,101330.06
2023-05-04T00:26:59.945Z,101326.47
2023-05-04T00:32:02.658Z,101313.00
2023-05-04T00:37:06.325Z,101313.09
2023-05-04T00:42:11.046Z,101310.19
2023-05-04T00:47:13.968Z,101300.59
2023-05-04T00:52:17.301Z,101308.06
2023-05-04T00:57:21.630Z,101298.72
2023-05-04T01:02:24.346Z,101301.44
2023-05-04T01:07:30.832Z,101296.50
2023-05-04T01:12:35.744Z,101300.03
2023-05-04T01:17:38.630Z,101296.50
2023-05-04T01:22:42.953Z,101292.06
2023-05-04T01:27:48.399Z,101297.13
2023-05-04T01:32:51.637Z,101299.13
2023-05-04T01:37:55.933Z,101297.00
2023-05-04T01:42:58.641Z,101305.81
2023-05-04T01:48:01.642Z,101308.63
2023-05-04T01:53:05.936Z,101317.00
2023-05-04T01:58:08.654Z,101320.63
2023-05-04T02:03:11.523Z,101324.59
2023-05-04T02:08:15.688Z,101326.22
2023-05-04T02:13:18.412Z,101331.03
2023-05-04T02:18:21.235Z,101313.34
2023-05-04T02:23:26.304Z,101315.59
2023-05-04T02:28:29.013Z,101312.16
2023-05-04T02:33:31.872Z,101301.16
2023-05-04T02:38:36.052Z,101297.91
2023-05-04T02:43:39.689Z,101297.00
2023-05-04T02:48:42.398Z,101287.75
2023-05-04T02:53:46.501Z,101293.47
2023-05-04T02:58:49.200Z,101278.72
2023-05-04T03:03:51.990Z,101278.44
2023-05-04T03:08:56.455Z,101274.28
2023-05-04T03:13:59.146Z,101269.94
2023-05-04T03:19:01.874Z,101268.84
2023-05-04T03:24:07.584Z,101264.59
2023-05-04T03:29:10.694Z,101257.25
2023-05-04T03:34:15.186Z,101252.88
2023-05-04T03:39:19.376Z,101253.47
2023-05-04T03:44:22.550Z,101246.31
2023-05-04T03:49:25.357Z,101254.69
2023-05-04T03:54:29.387Z,101252.09
2023-05-04T03:59:32.125Z,101245.84
2023-05-04T04:04:36.158Z,101240.75
2023-05-04T04:09:40.337Z,101233.63
2023-05-04T04:14:44.207Z,101234.44
2023-05-04T04:19:46.883Z,101238.78
2023-05-04T04:24:50.896Z,101232.81
2023-05-04T04:29:53.606Z,101233.09
2023-05-04T04:34:56.530Z,101232.00
2023-05-04T04:40:01.455Z,101235.41
2023-05-04T04:45:05.935Z,101242.31
2023-05-04T04:50:09.634Z,101247.25
2023-05-04T04:55:15.454Z,101251.81
2023-05-04T05:00:19.344Z,101256.53
2023-05-04T05:05:22.180Z,101256.34
2023-05-04T05:10:26.213Z,101251.38
2023-05-04T05:15:28.930Z,101255.53
2023-05-04T05:20:31.661Z,101265.50
2023-05-04T05:25:35.713Z,101262.38
2023-05-04T05:30:38.423Z,101259.56
2023-05-04T05:35:41.252Z,101260.34
2023-05-04T05:40:45.303Z,101264.81
2023-05-04T05:45:48.580Z,101263.38
2023-05-04T05:50:51.281Z,101265.88
2023-05-04T05:55:55.289Z,101265.59
2023-05-04T06:00:57.982Z,101273.56
2023-05-04T06:06:00.628Z,101273.84
2023-05-04T06:11:04.677Z,101272.81
2023-05-04T06:16:07.463Z,101264.78
2023-05-04T06:21:10.269Z,101271.00
2023-05-04T06:26:14.329Z,101270.44
2023-05-04T06:31:17.187Z,101271.91
2023-05-04T06:36:19.973Z,101276.06
2023-05-04T06:41:24.002Z,101275.53
2023-05-04T06:46:26.852Z,101269.53
2023-05-04T06:51:29.557Z,101273.41
2023-05-04T06:56:33.758Z,101297.25
2023-05-04T07:01:36.795Z,101299.56
2023-05-04T07:06:39.710Z,101287.38
2023-05-04T07:11:43.854Z,101293.44
2023-05-04T07:16:46.584Z,101283.66
2023-05-04T07:21:49.383Z,101261.97
2023-05-04T07:26:53.418Z,101259.25
2023-05-04T07:31:56.244Z,101261.31
2023-05-04T07:36:59.022Z,101255.81
2023-05-04T07:42:03.558Z,101237.34
2023-05-04T07:47:06.483Z,101228.91
2023-05-04T07:52:09.177Z,101214.50
2023-05-04T07:57:13.230Z,101205.47
2023-05-04T08:02:15.990Z,101207.00
2023-05-04T08:07:19.237Z,101186.59
2023-05-04T08:12:23.952Z,101183.91
2023-05-04T08:17:26.946Z,101175.41
2023-05-04T08:22:29.872Z,101174.44
2023-05-04T08:27:33.944Z,101164.59
2023-05-04T08:32:36.888Z,101164.47
2023-05-04T08:37:39.639Z,101164.75
2023-05-04T08:42:44.261Z,101158.13
2023-05-04T08:47:47.147Z,101157.66
2023-05-04T08:52:50.344Z,101150.31
2023-05-04T08:57:54.731Z,101129.06
2023-05-04T09:02:59.649Z,101143.56
2023-05-04T09:08:02.424Z,101129.09
2023-05-04T09:13:06.550Z,101132.44
2023-05-04T09:18:10.355Z,101124.06
2023-05-04T09:23:14.171Z,101129.84
2023-05-04T09:28:18.870Z,101123.38
2023-05-04T09:33:27.187Z,101114.88
2023-05-04T09:38:31.447Z,101125.69
2023-05-04T09:43:40.158Z,101122.81
2023-05-04T09:48:51.626Z,101115.81
2023-05-04T09:53:54.855Z,101114.97
2023-05-04T09:58:59.568Z,101089.13
2023-05-04T10:04:04.002Z,101083.16
2023-05-04T10:09:06.802Z,101070.19
2023-05-04T10:14:10.885Z,101053.81
2023-05-04T10:19:25.866Z,101035.84
2023-05-04T10:25:02.342Z,101014.88
2023-05-04T10:30:07.936Z,100977.50
2023-05-04T10:35:11.816Z,100962.91
2023-05-04T10:40:14.684Z,100957.47
2023-05-04T10:45:18.832Z,100950.97
2023-05-04T10:50:21.508Z,100937.28
2023-05-04T10:55:25.955Z,100938.63
2023-05-04T11:00:38.356Z,100930.91
2023-05-04T11:05:42.209Z,100909.31
2023-05-04T11:10:45.182Z,100905.53
2023-05-04T11:15:51.964Z,100900.72
2023-05-04T11:20:55.982Z,100896.50
2023-05-04T11:25:58.974Z,100893.66
2023-05-04T11:31:04.020Z,100886.31
2023-05-04T11:36:07.512Z,100885.97
2023-05-04T11:41:10.742Z,100882.44
2023-05-04T11:46:16.427Z,100872.84
2023-05-04T11:51:19.622Z,100861.59
2023-05-04T11:56:22.707Z,100864.84
2023-05-04T12:01:26.784Z,100866.88
2023-05-04T12:06:33.752Z,100854.38
2023-05-04T12:11:38.227Z,100850.31
2023-05-04T12:16:43.045Z,100843.16
2023-05-04T12:21:53.514Z,100834.31
2023-05-04T12:26:56.228Z,100832.69
2023-05-04T12:32:00.344Z,100823.69
2023-05-04T12:37:03.071Z,100824.63
2023-05-04T12:42:05.956Z,100815.78
2023-05-04T12:47:10.236Z,100814.91
2023-05-04T12:52:12.927Z,100803.22
2023-05-04T12:57:15.683Z,100785.34
2023-05-04T13:02:19.706Z,100779.09
2023-05-04T13:07:22.420Z,100780.88
2023-05-04T13:12:25.554Z,100765.63
2023-05-04T13:17:30.794Z,100764.75
2023-05-04T13:22:33.748Z,100748.63
2023-05-04T13:27:36.465Z,100737.00
2023-05-04T13:32:40.671Z,100738.78
2023-05-04T13:37:43.413Z,100732.56
2023-05-04T13:42:46.124Z,100731.59
2023-05-04T13:47:50.364Z,100717.19
2023-05-04T13:52:53.134Z,100693.94
2023-05-04T13:57:55.773Z,100698.38
2023-05-04T14:03:00.019Z,100693.94
2023-05-04T14:08:02.866Z,100673.31
2023-05-04T14:13:05.653Z,100679.59
2023-05-04T14:18:09.752Z,100659.88
2023-05-04T14:23:12.446Z,100648.19
2023-05-04T14:28:15.405Z,100638.34
2023-05-04T14:33:19.454Z,100625.03
2023-05-04T14:38:22.133Z,100623.22
2023-05-04T14:43:24.953Z,100613.38
2023-05-04T14:48:29.097Z,100614.19
2023-05-04T14:53:37.060Z,100602.66
2023-05-04T14:58:41.392Z,100594.66
2023-05-04T15:03:45.573Z,100596.41
2023-05-04T15:08:48.453Z,100591.00
2023-05-04T15:13:51.173Z,100587.50
2023-05-04T15:18:55.248Z,100588.38
2023-05-04T15:23:58.006Z,100569.63
2023-05-04T15:29:00.742Z,100573.19
2023-05-04T15:34:04.912Z,100571.44
2023-05-04T15:39:08.294Z,100565.22
2023-05-04T15:44:11.000Z,100566.06
2023-05-04T15:49:15.112Z,100557.19
2023-05-04T15:54:17.830Z,100545.56
2023-05-04T15:59:20.541Z,100545.56
2023-05-04T16:04:24.556Z,100537.50
2023-05-04T16:09:28.020Z,100526.78
2023-05-04T16:14:30.871Z,100521.47
2023-05-04T16:19:34.999Z,100513.44
2023-05-04T16:24:37.698Z,100520.53
2023-05-04T16:29:40.386Z,100515.16
2023-05-04T16:34:44.406Z,100516.09
2023-05-04T16:39:47.105Z,100509.88
2023-05-04T16:44:49.952Z,100514.34
2023-05-04T16:49:53.989Z,100511.69
2023-05-04T16:54:57.046Z,100510.78
2023-05-04T17:00:00.000Z,100500.91
2023-05-04T17:05:06.473Z,100502.72
2023-05-04T17:10:11.246Z,100491.13
2023-05-04T17:15:13.953Z,100495.56
2023-05-04T17:20:18.191Z,100486.59
2023-05-04T17:25:21.617Z,100491.06
2023-05-04T17:30:24.410Z,100489.19
2023-05-04T17:35:28.465Z,100483.81
2023-05-04T17:40:31.161Z,100490.97
2023-05-04T17:45:34.956Z,100485.50
2023-05-04T17:50:40.030Z,100483.75
2023-05-04T17:55:42.780Z,100495.25
2023-05-04T18:00:45.481Z,100497.03
2023-05-04T18:05:49.500Z,100497.88
2023-05-04T18:10:52.161Z,100491.44
2023-05-04T18:15:55.063Z,100503.03
2023-05-04T18:21:00.710Z,100499.34
2023-05-04T18:26:03.508Z,100509.97
2023-05-04T18:31:06.738Z,100514.31
2023-05-04T18:36:10.816Z,100507.97
2023-05-04T18:41:13.484Z,100514.94
2023-05-04T18:46:16.236Z,100520.97
2023-05-04T18:51:20.309Z,100525.19
2023-05-04T18:56:23.071Z,100534.03
2023-05-04T19:01:27.675Z,100539.13
2023-05-04T19:06:32.173Z,100541.66
2023-05-04T19:11:34.860Z,100542.38
2023-05-04T19:16:37.560Z,100544.00
2023-05-04T19:21:42.707Z,100542.16
2023-05-04T19:26:45.739Z,100539.34
2023-05-04T19:31:48.632Z,100538.19
2023-05-04T19:36:52.715Z,100526.56
2023-05-04T19:41:55.360Z,100534.31
2023-05-04T19:46:58.081Z,100548.28
2023-05-04T19:52:02.161Z,100542.09
2023-05-04T19:57:04.961Z,100549.91
2023-05-04T20:02:08.748Z,100549.59
2023-05-04T20:07:12.849Z,100544.13
2023-05-04T20:12:15.531Z,100552.91
2023-05-04T20:17:18.321Z,100550.09
2023-05-04T20:22:22.374Z,100548.06
2023-05-04T20:27:25.091Z,100548.03
2023-05-04T20:32:28.867Z,100547.94
2023-05-04T20:37:32.973Z,100540.34
2023-05-04T20:42:35.916Z,100551.13
2023-05-04T20:47:38.675Z,100540.47
2023-05-04T20:52:42.688Z,100537.72
2023-05-04T20:57:45.400Z,100529.56
2023-05-04T21:02:48.406Z,100523.03
2023-05-04T21:07:52.860Z,100519.28
2023-05-04T21:12:56.906Z,100518.34
2023-05-04T21:17:59.683Z,100511.91
2023-05-04T21:23:03.754Z,100501.34
2023-05-04T21:28:06.550Z,100500.28
2023-05-04T21:33:09.259Z,100506.44
2023-05-04T21:38:14.071Z,100496.50
2023-05-04T21:43:16.767Z,100497.91
2023-05-04T21:48:19.426Z,100497.69
2023-05-04T21:53:23.446Z,100493.25
2023-05-04T21:58:26.379Z,100494.19
2023-05-04T22:03:29.465Z,100492.22
2023-05-04T22:08:33.537Z,100493.88
2023-05-04T22:13:36.226Z,100484.94
2023-05-04T22:18:39.382Z,100485.56
2023-05-04T22:23:43.412Z,100487.19
2023-05-04T22:28:46.085Z,100488.72
2023-05-04T22:33:48.767Z,100480.66
2023-05-04T22:38:53.181Z,100478.41
2023-05-04T22:43:55.957Z,100480.34
2023-05-04T22:48:58.646Z,100475.78
2023-05-04T22:54:02.668Z,100481.97
2023-05-04T22:59:06.217Z,100477.28
2023-05-04T23:04:08.950Z,100479.91
2023-05-04T23:09:14.148Z,100470.72
2023-05-04T23:14:16.814Z,100485.88
2023-05-04T23:19:19.484Z,100481.09
2023-05-04T23:24:23.567Z,100476.13
2023-05-04T23:29:26.362Z,100469.63
2023-05-04T23:34:29.084Z,100480.22
2023-05-04T23:39:33.126Z,100473.25
2023-05-04T23:44:35.806Z,100476.56
2023-05-04T23:49:38.481Z,100465.16
2023-05-04T23:54:42.537Z,100461.19
2023-05-04T23:59:45.193Z,100466.41
